createdAt,value
2018-07-25T00:00:10.234Z,5.50
2018-07-25T00:02:52.878Z,5.90
2018-07-25T00:05:35.302Z,6.23
2018-07-25T00:08:18.025Z,6.00
2018-07-25T00:11:00.990Z,6.07
2018-07-25T00:13:44.117Z,6.20
2018-07-25T00:16:26.727Z,6.60
2018-07-25T00:19:09.111Z,5.70
2018-07-25T00:21:51.810Z,6.60
2018-07-25T00:24:34.573Z,6.20
2018-07-25T00:27:17.150Z,5.90
2018-07-25T00:29:59.913Z,6.50
2018-07-25T00:32:42.507Z,6.40
2018-07-25T00:35:25.465Z,7.10
2018-07-25T00:38:07.944Z,6.27
2018-07-25T00:40:50.926Z,6.20
2018-07-25T00:43:33.835Z,6.30
2018-07-25T00:46:16.360Z,6.07
2018-07-25T00:48:59.016Z,5.70
2018-07-25T00:51:42.347Z,6.13
2018-07-25T00:54:24.659Z,5.53
2018-07-25T00:57:07.382Z,6.33
2018-07-25T00:59:50.294Z,6.33
2018-07-25T01:02:33.079Z,6.97
2018-07-25T01:05:16.148Z,5.37
2018-07-25T01:07:58.693Z,6.20
2018-07-25T01:10:42.306Z,6.40
2018-07-25T01:13:25.354Z,5.90
2018-07-25T01:16:08.391Z,5.00
2018-07-25T01:18:51.094Z,5.60
2018-07-25T01:21:33.873Z,5.07
2018-07-25T01:24:16.999Z,4.77
2018-07-25T01:27:00.071Z,5.00
2018-07-25T01:29:42.700Z,4.70
2018-07-25T01:32:25.451Z,5.30
2018-07-25T01:35:08.424Z,5.10
2018-07-25T01:37:50.399Z,4.80
2018-07-25T01:40:33.658Z,5.40
2018-07-25T01:43:16.523Z,5.07
2018-07-25T01:45:59.651Z,4.83
2018-07-25T01:48:42.757Z,4.33
2018-07-25T01:51:25.691Z,4.80
2018-07-25T01:54:08.378Z,4.13
2018-07-25T01:56:51.704Z,4.60
2018-07-25T01:59:34.918Z,4.37
2018-07-25T02:02:17.706Z,4.40
2018-07-25T02:05:00.501Z,4.40
2018-07-25T02:07:43.101Z,4.37
2018-07-25T02:10:26.414Z,4.90
2018-07-25T02:13:09.091Z,4.47
2018-07-25T02:15:51.949Z,4.33
2018-07-25T02:18:34.321Z,4.03
2018-07-25T02:21:17.099Z,4.63
2018-07-25T02:24:00.052Z,4.63
2018-07-25T02:26:42.024Z,4.60
2018-07-25T02:29:25.233Z,4.17
2018-07-25T02:32:07.922Z,4.50
2018-07-25T02:34:50.492Z,4.17
2018-07-25T02:37:33.523Z,4.20
2018-07-25T02:40:15.900Z,4.23
2018-07-25T02:42:58.850Z,4.27
2018-07-25T02:45:45.812Z,4.47
2018-07-25T02:48:28.904Z,4.30
2018-07-25T02:51:11.702Z,4.33
2018-07-25T02:53:54.405Z,4.63
2018-07-25T02:56:37.123Z,4.80
2018-07-25T02:59:19.985Z,4.90
2018-07-25T03:02:02.349Z,4.30
2018-07-25T03:04:45.615Z,4.37
2018-07-25T03:07:28.031Z,4.40
2018-07-25T03:10:10.717Z,4.70
2018-07-25T03:12:53.813Z,4.23
2018-07-25T03:15:36.523Z,4.00
2018-07-25T03:18:19.590Z,3.80
2018-07-25T03:21:02.586Z,4.03
2018-07-25T03:23:45.140Z,4.17
2018-07-25T03:26:28.250Z,4.50
2018-07-25T03:29:10.905Z,4.43
2018-07-25T03:31:53.694Z,4.87
2018-07-25T03:34:36.422Z,3.93
2018-07-25T03:37:19.605Z,4.83
2018-07-25T03:40:02.012Z,4.13
2018-07-25T03:42:44.857Z,4.70
2018-07-25T03:45:28.490Z,4.80
2018-07-25T03:48:11.330Z,4.07
2018-07-25T03:50:54.359Z,4.47
2018-07-25T03:53:36.995Z,4.30
2018-07-25T03:56:19.599Z,4.70
2018-07-25T03:59:02.212Z,4.53
2018-07-25T04:01:45.117Z,4.60
2018-07-25T04:04:27.497Z,4.57
2018-07-25T04:07:10.478Z,4.83
2018-07-25T04:09:53.266Z,5.10
2018-07-25T04:12:35.959Z,6.67
2018-07-25T04:15:18.566Z,7.13
2018-07-25T04:18:01.246Z,10.13
2018-07-25T04:20:43.894Z,12.63
2018-07-25T04:23:26.546Z,12.43
2018-07-25T04:26:09.806Z,8.33
2018-07-25T04:28:52.119Z,13.83
2018-07-25T04:31:35.002Z,10.63
2018-07-25T04:34:17.486Z,13.40
2018-07-25T04:36:59.959Z,7.40
2018-07-25T04:39:42.730Z,5.20
2018-07-25T04:42:25.817Z,6.07
2018-07-25T04:45:09.888Z,10.10
2018-07-25T04:47:52.282Z,16.57
2018-07-25T04:50:35.100Z,17.87
2018-07-25T04:53:17.771Z,13.13
2018-07-25T04:56:00.569Z,9.97
2018-07-25T04:58:43.394Z,7.67
2018-07-25T05:01:26.221Z,11.10
2018-07-25T05:04:09.179Z,9.90
2018-07-25T05:06:51.678Z,12.87
2018-07-25T05:09:35.690Z,12.27
2018-07-25T05:12:18.217Z,12.57
2018-07-25T05:15:00.896Z,14.00
2018-07-25T05:17:43.291Z,11.13
2018-07-25T05:20:26.248Z,15.13
2018-07-25T05:23:08.909Z,16.60
2018-07-25T05:25:51.367Z,14.63
2018-07-25T05:28:34.154Z,9.90
2018-07-25T05:31:17.721Z,7.87
2018-07-25T05:34:00.574Z,6.63
2018-07-25T05:36:42.979Z,8.60
2018-07-25T05:39:25.807Z,8.00
2018-07-25T05:42:09.741Z,8.37
2018-07-25T05:44:52.476Z,6.80
2018-07-25T05:47:35.964Z,6.23
2018-07-25T05:50:19.068Z,5.10
2018-07-25T05:53:01.315Z,3.90
2018-07-25T05:55:44.476Z,3.87
2018-07-25T05:58:27.367Z,3.73
2018-07-25T06:01:10.006Z,3.27
2018-07-25T06:03:52.860Z,3.80
2018-07-25T06:06:35.869Z,4.80
2018-07-25T06:09:18.632Z,3.80
2018-07-25T06:12:01.251Z,4.07
2018-07-25T06:14:43.601Z,4.90
2018-07-25T06:17:32.170Z,4.20
2018-07-25T06:20:14.548Z,5.17
2018-07-25T06:22:57.471Z,6.90
2018-07-25T06:25:40.036Z,4.80
2018-07-25T06:28:22.961Z,6.13
2018-07-25T06:31:05.908Z,6.13
2018-07-25T06:33:48.702Z,7.43
2018-07-25T06:36:31.484Z,5.63
2018-07-25T06:39:14.589Z,6.83
2018-07-25T06:41:58.080Z,5.70
2018-07-25T06:44:40.749Z,7.70
2018-07-25T06:47:23.641Z,6.37
2018-07-25T06:50:07.625Z,6.50
2018-07-25T06:52:50.299Z,6.37
2018-07-25T06:55:33.202Z,5.07
2018-07-25T06:58:16.176Z,5.20
2018-07-25T07:00:58.938Z,5.40
2018-07-25T07:03:41.775Z,5.17
2018-07-25T07:06:24.692Z,6.30
2018-07-25T07:09:08.978Z,7.60
2018-07-25T07:11:51.393Z,6.13
2018-07-25T07:14:33.949Z,6.67
2018-07-25T07:17:16.458Z,5.53
2018-07-25T07:19:59.247Z,4.63
2018-07-25T07:22:42.044Z,5.17
2018-07-25T07:25:25.748Z,5.90
2018-07-25T07:28:08.434Z,4.70
2018-07-25T07:30:51.306Z,5.17
2018-07-25T07:33:34.188Z,5.60
2018-07-25T07:36:16.720Z,5.87
2018-07-25T07:38:59.371Z,6.80
2018-07-25T07:41:42.332Z,5.30
2018-07-25T07:44:24.867Z,4.77
2018-07-25T07:47:07.750Z,4.13
2018-07-25T07:49:50.196Z,4.40
2018-07-25T07:52:32.838Z,4.83
2018-07-25T07:55:15.877Z,4.95
2018-07-25T07:57:58.145Z,4.08
2018-07-25T08:00:41.658Z,4.80
2018-07-25T08:03:24.074Z,5.33
2018-07-25T08:06:06.630Z,5.33
2018-07-25T08:08:49.495Z,4.67
2018-07-25T08:11:32.545Z,4.33
2018-07-25T08:14:15.876Z,4.05
2018-07-25T08:16:58.503Z,4.40
2018-07-25T08:19:41.072Z,4.03
2018-07-25T08:22:23.703Z,4.00
2018-07-25T08:25:06.514Z,5.33
2018-07-25T08:27:49.709Z,5.00
2018-07-25T08:30:32.331Z,4.62
2018-07-25T08:33:14.891Z,4.60
2018-07-25T08:35:57.834Z,5.33
2018-07-25T08:38:41.443Z,6.75
2018-07-25T08:41:24.674Z,5.08
2018-07-25T08:44:07.888Z,4.65
2018-07-25T08:46:50.541Z,4.70
2018-07-25T08:49:33.149Z,4.83
2018-07-25T08:52:16.334Z,4.87
2018-07-25T08:54:58.738Z,4.08
2018-07-25T08:57:41.579Z,4.37
2018-07-25T09:00:24.184Z,4.85
2018-07-25T09:03:07.119Z,4.22
2018-07-25T09:05:49.847Z,4.33
2018-07-25T09:08:32.420Z,4.53
2018-07-25T09:11:19.713Z,4.47
2018-07-25T09:14:02.525Z,4.00
2018-07-25T09:16:44.870Z,5.30
2018-07-25T09:19:28.034Z,4.40
2018-07-25T09:22:10.156Z,4.72
2018-07-25T09:24:53.221Z,4.60
2018-07-25T09:27:36.100Z,4.12
2018-07-25T09:30:18.993Z,4.65
2018-07-25T09:33:01.259Z,4.50
2018-07-25T09:35:44.515Z,5.30
2018-07-25T09:38:26.787Z,5.08
2018-07-25T09:41:09.620Z,4.53
2018-07-25T09:43:52.294Z,5.25
2018-07-25T09:46:35.845Z,4.83
2018-07-25T09:49:19.011Z,5.15
2018-07-25T09:52:01.554Z,3.92
2018-07-25T09:54:44.528Z,4.10
2018-07-25T09:57:27.244Z,4.60
2018-07-25T10:00:12.288Z,3.87
2018-07-25T10:02:54.748Z,5.05
2018-07-25T10:05:38.087Z,5.80
2018-07-25T10:08:20.484Z,4.65
2018-07-25T10:11:03.506Z,4.53
2018-07-25T10:13:46.051Z,5.60
2018-07-25T10:16:28.776Z,5.45
2018-07-25T10:19:11.448Z,5.17
2018-07-25T10:21:53.958Z,4.72
2018-07-25T10:24:37.109Z,5.50
2018-07-25T10:27:20.195Z,5.37
2018-07-25T10:30:02.592Z,5.20
2018-07-25T10:32:45.387Z,5.30
2018-07-25T10:35:28.330Z,4.97
2018-07-25T10:38:11.210Z,5.15
2018-07-25T10:40:54.010Z,5.65
2018-07-25T10:43:37.441Z,5.47
2018-07-25T10:46:20.567Z,5.95
2018-07-25T10:49:03.022Z,6.53
2018-07-25T10:51:45.997Z,6.67
2018-07-25T10:54:29.156Z,6.05
2018-07-25T10:57:12.526Z,6.47
2018-07-25T10:59:55.406Z,6.03
2018-07-25T11:02:38.723Z,6.65
2018-07-25T11:05:21.572Z,6.12
2018-07-25T11:08:04.418Z,5.62
2018-07-25T11:10:47.254Z,5.83
2018-07-25T11:13:30.311Z,6.08
2018-07-25T11:16:13.039Z,6.08
2018-07-25T11:18:55.433Z,6.08
2018-07-25T11:21:38.209Z,5.97
2018-07-25T11:24:21.114Z,6.10
2018-07-25T11:27:03.805Z,5.65
2018-07-25T11:29:46.497Z,6.42
2018-07-25T11:32:29.375Z,6.70
2018-07-25T11:35:11.912Z,6.62
2018-07-25T11:37:54.941Z,6.80
2018-07-25T11:40:38.329Z,6.05
2018-07-25T11:43:20.741Z,5.75
2018-07-25T11:46:03.722Z,6.37
2018-07-25T11:48:45.870Z,6.15
2018-07-25T11:51:28.787Z,5.75
2018-07-25T11:54:11.687Z,6.03
2018-07-25T11:56:54.485Z,6.40
2018-07-25T11:59:37.919Z,6.15
2018-07-25T12:02:20.079Z,5.55
2018-07-25T12:05:02.769Z,5.60
2018-07-25T12:07:45.663Z,5.50
2018-07-25T12:10:28.597Z,6.58
2018-07-25T12:13:11.504Z,5.47
2018-07-25T12:15:54.400Z,5.42
2018-07-25T12:18:37.260Z,5.03
2018-07-25T12:21:19.704Z,5.12
2018-07-25T12:24:02.998Z,6.10
2018-07-25T12:26:45.213Z,5.90
2018-07-25T12:29:28.501Z,5.47
2018-07-25T12:32:11.095Z,5.42
2018-07-25T12:34:54.206Z,5.60
2018-07-25T12:37:36.932Z,5.40
2018-07-25T12:40:20.002Z,5.58
2018-07-25T12:43:02.897Z,5.60
2018-07-25T12:45:46.583Z,5.37
2018-07-25T12:48:29.575Z,5.00
2018-07-25T12:51:12.342Z,5.35
2018-07-25T12:53:55.529Z,5.17
2018-07-25T12:56:37.942Z,4.83
2018-07-25T12:59:20.952Z,4.78
2018-07-25T13:02:03.927Z,4.90
2018-07-25T13:04:46.695Z,5.12
2018-07-25T13:07:29.705Z,5.10
2018-07-25T13:10:12.535Z,4.70
2018-07-25T13:12:56.486Z,4.33
2018-07-25T13:15:39.240Z,4.80
2018-07-25T13:18:22.101Z,4.65
2018-07-25T13:21:04.790Z,4.33
2018-07-25T13:23:47.490Z,4.67
2018-07-25T13:26:31.087Z,4.97
2018-07-25T13:29:14.391Z,3.77
2018-07-25T13:31:56.890Z,5.00
2018-07-25T13:34:39.347Z,5.62
2018-07-25T13:37:22.416Z,4.00
2018-07-25T13:40:06.156Z,4.55
2018-07-25T13:42:48.995Z,5.00
2018-07-25T13:45:31.789Z,4.40
2018-07-25T13:48:14.603Z,5.17
2018-07-25T13:50:57.871Z,4.67
2018-07-25T13:53:40.137Z,4.55
2018-07-25T13:56:23.179Z,4.62
2018-07-25T13:59:06.089Z,4.35
2018-07-25T14:01:48.621Z,3.87
2018-07-25T14:04:31.517Z,4.58
2018-07-25T14:07:14.289Z,4.22
2018-07-25T14:09:56.951Z,4.78
2018-07-25T14:12:40.267Z,4.35
2018-07-25T14:15:23.021Z,4.67
2018-07-25T14:18:05.432Z,4.58
2018-07-25T14:20:48.962Z,4.67
2018-07-25T14:23:31.837Z,4.65
2018-07-25T14:26:14.542Z,4.50
2018-07-25T14:28:57.263Z,4.80
2018-07-25T14:31:39.551Z,4.72
2018-07-25T14:34:22.328Z,4.45
2018-07-25T14:37:05.007Z,5.08
2018-07-25T14:39:47.726Z,3.65
2018-07-25T14:42:30.393Z,4.25
2018-07-25T14:45:13.153Z,4.25
2018-07-25T14:47:57.073Z,4.30
2018-07-25T14:50:39.930Z,3.67
2018-07-25T14:53:22.914Z,3.87
2018-07-25T14:56:05.646Z,3.45
2018-07-25T14:58:48.815Z,4.40
2018-07-25T15:01:31.243Z,3.77
2018-07-25T15:04:16.498Z,3.58
2018-07-25T15:06:59.460Z,3.62
2018-07-25T15:09:42.210Z,4.25
2018-07-25T15:12:48.150Z,3.90
2018-07-25T15:15:30.690Z,4.58
2018-07-25T15:18:14.228Z,4.30
2018-07-25T15:20:57.469Z,4.35
2018-07-25T15:23:50.754Z,4.22
2018-07-25T15:26:34.400Z,4.60
2018-07-25T15:29:17.715Z,3.90
2018-07-25T15:31:59.983Z,5.25
2018-07-25T15:34:42.982Z,4.17
2018-07-25T15:37:25.783Z,4.87
2018-07-25T15:40:09.574Z,5.00
2018-07-25T15:42:52.447Z,4.08
2018-07-25T15:45:35.338Z,5.28
2018-07-25T15:48:18.372Z,4.15
2018-07-25T15:51:01.350Z,4.53
2018-07-25T15:53:44.218Z,4.80
2018-07-25T15:56:26.520Z,8.30
2018-07-25T15:59:09.389Z,5.28
2018-07-25T16:01:51.901Z,4.35
2018-07-25T16:04:34.503Z,4.33
2018-07-25T16:07:17.540Z,4.00
2018-07-25T16:10:00.260Z,4.40
2018-07-25T16:12:43.259Z,4.50
2018-07-25T16:15:25.625Z,4.78
2018-07-25T16:18:08.520Z,5.00
2018-07-25T16:20:51.315Z,4.78
2018-07-25T16:23:34.270Z,4.50
2018-07-25T16:26:16.701Z,5.10
2018-07-25T16:28:59.588Z,4.50
2018-07-25T16:31:43.366Z,4.60
2018-07-25T16:34:26.498Z,4.28
2018-07-25T16:37:09.002Z,4.03
2018-07-25T16:39:51.786Z,4.17
2018-07-25T16:42:34.624Z,5.50
2018-07-25T16:45:17.685Z,4.12
2018-07-25T16:48:00.080Z,3.83
2018-07-25T16:50:42.687Z,4.28
2018-07-25T16:53:25.469Z,3.60
2018-07-25T16:56:08.254Z,3.62
2018-07-25T16:58:51.964Z,3.98
2018-07-25T17:01:35.187Z,4.40
2018-07-25T17:04:17.563Z,3.72
2018-07-25T17:07:00.331Z,3.37
2018-07-25T17:09:43.397Z,3.67
2018-07-25T17:12:26.533Z,4.03
2018-07-25T17:15:10.773Z,3.40
2018-07-25T17:17:53.351Z,3.25
2018-07-25T17:20:37.002Z,3.37
2018-07-25T17:23:20.045Z,3.35
2018-07-25T17:26:03.023Z,3.67
2018-07-25T17:28:45.457Z,3.77
2018-07-25T17:31:28.417Z,4.40
2018-07-25T17:34:11.275Z,3.62
2018-07-25T17:36:54.480Z,3.90
2018-07-25T17:39:37.004Z,3.90
2018-07-25T17:42:20.152Z,3.67
2018-07-25T17:45:02.902Z,3.47
2018-07-25T17:47:46.466Z,3.72
2018-07-25T17:50:28.870Z,5.70
2018-07-25T17:53:11.852Z,4.22
2018-07-25T17:55:54.562Z,4.20
2018-07-25T17:58:36.971Z,4.45
2018-07-25T18:01:19.478Z,4.95
2018-07-25T18:04:02.879Z,4.90
2018-07-25T18:06:45.178Z,5.42
2018-07-25T18:09:28.030Z,5.15
2018-07-25T18:12:11.134Z,6.83
2018-07-25T18:14:53.351Z,5.95
2018-07-25T18:17:36.137Z,6.95
2018-07-25T18:20:19.127Z,5.37
2018-07-25T18:23:01.978Z,4.95
2018-07-25T18:25:45.217Z,4.00
2018-07-25T18:28:28.454Z,4.43
2018-07-25T18:31:11.441Z,6.07
2018-07-25T18:33:54.592Z,5.50
2018-07-25T18:36:37.742Z,5.90
2018-07-25T18:39:20.749Z,4.55
2018-07-25T18:42:03.219Z,6.37
2018-07-25T18:44:46.010Z,5.10
2018-07-25T18:47:29.135Z,5.20
2018-07-25T18:50:12.346Z,4.70
2018-07-25T18:52:55.489Z,4.60
2018-07-25T18:55:38.217Z,5.50
2018-07-25T18:58:21.226Z,4.87
2018-07-25T19:01:03.843Z,5.20
2018-07-25T19:03:46.343Z,5.10
2018-07-25T19:06:29.270Z,5.20
2018-07-25T19:09:15.543Z,6.43
2018-07-25T19:11:58.134Z,6.67
2018-07-25T19:14:47.309Z,5.53
2018-07-25T19:17:30.325Z,4.37
2018-07-25T19:20:13.012Z,4.53
2018-07-25T19:22:55.912Z,4.37
2018-07-25T19:25:38.620Z,4.90
2018-07-25T19:28:21.597Z,4.60
2018-07-25T19:31:04.472Z,18.27
2018-07-25T19:33:47.497Z,3.73
2018-07-25T19:36:30.641Z,3.27
2018-07-25T19:39:12.826Z,3.60
2018-07-25T19:41:55.808Z,4.80
2018-07-25T19:44:38.524Z,4.70
2018-07-25T19:47:21.043Z,4.10
2018-07-25T19:50:03.490Z,4.50
2018-07-25T19:52:46.218Z,4.00
2018-07-25T19:55:29.287Z,4.00
2018-07-25T19:58:11.789Z,3.80
2018-07-25T20:00:55.089Z,4.27
2018-07-25T20:03:37.690Z,3.33
2018-07-25T20:06:20.170Z,3.60
2018-07-25T20:09:03.045Z,4.43
2018-07-25T20:11:45.736Z,4.40
2018-07-25T20:14:33.154Z,3.10
2018-07-25T20:17:16.343Z,3.20
2018-07-25T20:19:59.104Z,3.33
2018-07-25T20:22:42.286Z,3.80
2018-07-25T20:25:25.373Z,3.67
2018-07-25T20:28:08.069Z,2.97
2018-07-25T20:30:50.760Z,3.03
2018-07-25T20:33:33.661Z,2.90
2018-07-25T20:36:17.123Z,4.10
2018-07-25T20:38:59.858Z,2.83
2018-07-25T20:41:43.202Z,3.23
2018-07-25T20:44:26.238Z,3.23
2018-07-25T20:47:09.050Z,2.93
2018-07-25T20:49:52.103Z,2.83
2018-07-25T20:52:34.824Z,3.33
2018-07-25T20:55:17.367Z,2.50
2018-07-25T20:58:00.174Z,2.90
2018-07-25T21:14:16.560Z,3.70
2018-07-25T21:16:59.379Z,3.80
2018-07-25T21:19:42.648Z,3.10
2018-07-25T21:22:25.524Z,3.10
2018-07-25T21:25:09.128Z,3.20
2018-07-25T21:27:52.707Z,3.20
2018-07-25T21:30:35.150Z,2.73
2018-07-25T21:33:19.506Z,3.23
2018-07-25T21:36:02.907Z,2.70
2018-07-25T21:38:46.283Z,3.23
2018-07-25T21:41:29.334Z,3.30
2018-07-25T21:44:11.829Z,3.40
2018-07-25T21:46:54.684Z,3.77
2018-07-25T21:49:37.560Z,3.13
2018-07-25T21:52:20.608Z,3.47
2018-07-25T21:55:03.006Z,3.00
2018-07-25T21:57:45.520Z,3.53
2018-07-25T22:00:28.631Z,5.53
2018-07-25T22:03:11.523Z,3.40
2018-07-25T22:05:54.454Z,3.93
2018-07-25T22:08:36.973Z,3.67
2018-07-25T22:11:20.257Z,3.27
2018-07-25T22:14:03.640Z,2.90
2018-07-25T22:16:46.627Z,4.00
2018-07-25T22:19:29.370Z,4.03
2018-07-25T22:22:11.791Z,3.60
2018-07-25T22:24:54.815Z,3.87
2018-07-25T22:27:37.762Z,3.77
2018-07-25T22:30:19.995Z,4.13
2018-07-25T22:33:02.682Z,3.50
2018-07-25T22:35:46.052Z,3.37
2018-07-25T22:38:34.748Z,3.30
2018-07-25T22:41:17.115Z,3.67
2018-07-25T22:43:59.886Z,3.30
2018-07-25T22:46:42.830Z,2.87
2018-07-25T22:49:25.308Z,3.30
2018-07-25T22:52:08.572Z,3.30
2018-07-25T22:54:51.008Z,3.70
2018-07-25T22:57:33.972Z,3.67
2018-07-25T23:00:16.328Z,3.70
2018-07-25T23:02:58.939Z,3.50
2018-07-25T23:05:42.139Z,3.73
2018-07-25T23:08:24.853Z,4.20
2018-07-25T23:11:07.737Z,3.70
2018-07-25T23:13:50.474Z,4.30
2018-07-25T23:16:33.024Z,5.13
2018-07-25T23:19:15.924Z,3.27
2018-07-25T23:21:58.723Z,3.20
2018-07-25T23:24:41.399Z,3.33
2018-07-25T23:27:24.214Z,3.80
2018-07-25T23:30:06.767Z,3.57
2018-07-25T23:32:50.155Z,3.37
2018-07-25T23:35:33.257Z,3.13
2018-07-25T23:38:15.881Z,3.13
2018-07-25T23:40:58.962Z,3.37
2018-07-25T23:43:41.789Z,2.90
2018-07-25T23:46:24.315Z,2.83
2018-07-25T23:49:06.907Z,3.67
2018-07-25T23:51:49.705Z,2.83
2018-07-25T23:54:32.446Z,3.00
2018-07-25T23:57:15.048Z,3.27
